Time;durP1;ratioP1;P1;durP2;ratioP2;P2;SDS_P1;SDS_P2;PMS_P1;PMS_P2;Temp;Humidity;BMP_temperature;BMP_pressure;BME280_temperature;BME280_humidity;BME280_pressure;Samples;Min_cycle;Max_cycle;Signal;HPM_P1;HPM_P2
2022/01/12 00:00:18;;;;;;;9.75;3.55;;;-10.00;86.40;;;;;;5103289;28;20060;-83
2022/01/12 00:02:44;;;;;;;5.22;3.25;;;-9.90;86.20;;;;;;5070609;28;20028;-82
2022/01/12 00:05:11;;;;;;;4.43;2.50;;;-10.00;86.60;;;;;;5087445;28;20405;-81
2022/01/12 00:07:37;;;;;;;6.50;3.83;;;-10.00;87.60;;;;;;5077914;28;20023;-82
2022/01/12 00:10:04;;;;;;;4.55;3.33;;;-10.00;87.30;;;;;;5077640;28;20099;-81
2022/01/12 00:12:30;;;;;;;12.57;3.53;;;-10.00;86.20;;;;;;5089010;28;20437;-82
2022/01/12 00:14:55;;;;;;;4.35;3.10;;;-10.00;86.60;;;;;;5078874;28;20067;-82
2022/01/12 00:17:21;;;;;;;4.47;2.45;;;-10.10;87.10;;;;;;5096092;28;20020;-82
2022/01/12 00:19:48;;;;;;;5.75;3.30;;;-10.10;87.70;;;;;;5095032;28;20421;-82
2022/01/12 00:22:14;;;;;;;8.10;3.20;;;-10.00;88.30;;;;;;5078778;28;20020;-87
2022/01/12 00:25:04;;;;;;;5.57;3.28;;;-10.10;86.60;;;;;;5080641;28;20382;-84
2022/01/12 00:33:12;;;;;;;3.92;2.33;;;-10.10;86.70;;;;;;5103538;28;20100;-86
2022/01/12 00:35:40;;;;;;;4.80;2.50;;;-10.10;87.10;;;;;;5089172;28;20016;-84
2022/01/12 00:38:06;;;;;;;6.30;4.18;;;-10.20;87.10;;;;;;5100029;28;20051;-85
2022/01/12 00:40:33;;;;;;;4.55;2.35;;;-10.20;87.50;;;;;;5080805;28;20020;-85
2022/01/12 00:42:59;;;;;;;5.82;3.70;;;-10.20;88.20;;;;;;5089886;28;20074;-87
2022/01/12 00:45:26;;;;;;;8.52;3.38;;;-10.10;88.40;;;;;;5112801;28;20044;-86
2022/01/12 00:47:52;;;;;;;;;;;-10.10;88.40;;;;;;5108543;28;20400;-85
2022/01/12 00:50:18;;;;;;;6.93;2.83;;;-10.00;87.80;;;;;;5120352;28;19924;-84
2022/01/12 00:52:43;;;;;;;4.57;2.30;;;-10.10;87.60;;;;;;5117183;28;20032;-85
2022/01/12 00:55:09;;;;;;;5.68;3.60;;;-10.00;87.80;;;;;;5118990;28;20047;-85
2022/01/12 00:57:35;;;;;;;8.77;3.15;;;-10.00;88.50;;;;;;5115360;28;20082;-86
2022/01/12 01:00:02;;;;;;;8.63;3.08;;;-10.00;88.00;;;;;;5115312;28;20027;-86
2022/01/12 01:02:28;;;;;;;3.35;2.42;;;-10.00;88.60;;;;;;5113414;28;20028;-85
2022/01/12 01:04:56;;;;;;;6.25;3.70;;;-10.00;88.30;;;;;;5117765;28;20026;-79
2022/01/12 01:07:21;;;;;;;7.47;2.83;;;-10.00;87.90;;;;;;5115139;28;20029;-86
2022/01/12 01:10:15;;;;;;;8.38;3.22;;;-10.00;87.20;;;;;;5111396;28;20028;-85
2022/01/12 01:12:36;;;;;;;4.38;2.45;;;-10.00;87.60;;;;;;5097083;28;20036;-85
2022/01/12 01:15:09;;;;;;;5.47;3.00;;;-10.00;87.90;;;;;;5096362;28;20481;-85
2022/01/12 01:25:41;;;;;;;4.50;2.50;;;-9.90;87.00;;;;;;5096137;28;20853;-84
2022/01/12 01:28:07;;;;;;;10.43;2.70;;;-10.00;86.20;;;;;;5097759;28;20008;-83
2022/01/12 01:30:36;;;;;;;5.65;3.30;;;-10.00;86.20;;;;;;5116583;28;20051;-85
2022/01/12 01:33:07;;;;;;;7.35;3.00;;;-10.00;86.40;;;;;;5095342;28;20026;-85
2022/01/12 01:35:43;;;;;;;3.08;2.45;;;-10.00;86.80;;;;;;5095394;28;20059;-84
2022/01/12 01:38:09;;;;;;;5.55;2.65;;;-10.00;87.10;;;;;;5087227;28;20432;-82
2022/01/12 01:40:38;;;;;;;4.95;3.00;;;-10.00;87.40;;;;;;5056799;28;20028;-85
2022/01/12 01:53:48;;;;;;;7.55;3.47;;;-9.90;86.70;;;;;;5094793;28;20445;-85
2022/01/12 01:56:14;;;;;;;7.47;3.10;;;-9.90;86.60;;;;;;5094226;28;20032;-83
2022/01/12 01:58:40;;;;;;;3.92;2.65;;;-9.90;86.70;;;;;;5087384;28;20062;-82
2022/01/12 02:01:07;;;;;;;5.83;3.20;;;-9.90;87.80;;;;;;5088898;28;20078;-84
2022/01/12 02:03:33;;;;;;;4.53;2.87;;;-9.90;87.10;;;;;;5095635;28;20422;-82
2022/01/12 02:05:59;;;;;;;6.03;3.25;;;-9.90;87.30;;;;;;5109755;28;20075;-84
2022/01/12 02:08:26;;;;;;;4.30;2.70;;;-9.90;87.00;;;;;;5108347;28;20024;-85
2022/01/12 02:10:59;;;;;;;5.97;3.38;;;-9.90;86.20;;;;;;5116821;28;20018;-84
2022/01/12 02:13:25;;;;;;;5.15;3.53;;;-9.90;85.90;;;;;;5098877;28;20032;-86
2022/01/12 02:15:54;;;;;;;4.32;2.70;;;-9.90;86.40;;;;;;5113931;28;20035;-85
2022/01/12 02:40:54;;;;;;;5.43;3.10;;;-10.10;85.90;;;;;;5095258;28;20024;-85
2022/01/12 02:51:36;;;;;;;4.72;3.00;;;-10.40;86.00;;;;;;5086044;28;20081;-85
2022/01/12 02:54:03;;;;;;;5.93;4.10;;;-10.40;86.80;;;;;;5080627;28;20092;-84
2022/01/12 02:56:34;;;;;;;3.30;2.13;;;-10.50;87.10;;;;;;5111973;28;20024;-79
2022/01/12 02:59:01;;;;;;;7.00;4.10;;;-10.50;87.50;;;;;;5115985;28;20024;-85
2022/01/12 03:04:02;;;;;;;3.83;2.65;;;-10.40;87.00;;;;;;5114539;28;20070;-85
2022/01/12 03:06:31;;;;;;;4.63;2.30;;;-10.40;87.30;;;;;;5087350;28;20447;-85
2022/01/12 03:08:57;;;;;;;6.43;2.97;;;-10.30;87.50;;;;;;5082077;28;20020;-83
2022/01/12 03:11:25;;;;;;;5.93;3.88;;;-10.30;87.30;;;;;;5093884;28;20089;-84
2022/01/12 03:13:52;;;;;;;3.38;3.03;;;-10.30;87.30;;;;;;5094469;28;20051;-84
2022/01/12 03:16:21;;;;;;;;;;;-10.30;86.60;;;;;;5094987;28;20020;-87
2022/01/12 03:18:50;;;;;;;5.65;2.92;;;-10.40;86.00;;;;;;5094600;28;19961;-86
2022/01/12 03:21:18;;;;;;;5.65;3.72;;;-10.50;86.90;;;;;;5102302;28;20028;-87
2022/01/12 03:23:44;;;;;;;4.80;3.13;;;-10.60;87.80;;;;;;5100741;28;20021;-90
2022/01/12 03:26:10;;;;;;;4.35;3.00;;;-10.60;88.30;;;;;;5084531;28;20031;-87
2022/01/12 03:28:38;;;;;;;6.43;3.72;;;-10.60;87.80;;;;;;5084159;28;20031;-87
2022/01/12 03:33:50;;;;;;;8.10;3.45;;;-10.50;87.60;;;;;;5100312;28;20038;-87
2022/01/12 03:39:04;;;;;;;7.68;3.38;;;-10.50;87.00;;;;;;5110080;28;20043;-85
2022/01/12 03:41:34;;;;;;;5.20;3.17;;;-10.50;87.30;;;;;;5095338;28;20028;-86
2022/01/12 03:44:02;;;;;;;7.63;4.40;;;-10.50;87.00;;;;;;5095934;28;20067;-85
2022/01/12 03:46:35;;;;;;;6.15;3.42;;;-10.50;87.20;;;;;;5081637;28;20466;-89
2022/01/12 03:49:00;;;;;;;10.43;4.95;;;-10.40;87.50;;;;;;5098470;28;20024;-87
2022/01/12 03:51:27;;;;;;;5.30;3.97;;;-10.40;86.90;;;;;;5085027;28;20409;-87
2022/01/12 03:53:52;;;;;;;5.00;3.08;;;-10.40;86.50;;;;;;5081971;28;20048;-87
2022/01/12 03:56:18;;;;;;;8.48;4.57;;;-10.40;86.80;;;;;;5109785;28;20031;-86
2022/01/12 03:58:44;;;;;;;8.80;4.93;;;-10.40;87.40;;;;;;5113773;28;20031;-86
2022/01/12 04:01:10;;;;;;;10.50;5.07;;;-10.40;87.10;;;;;;5111083;28;20043;-87
2022/01/12 04:03:44;;;;;;;8.80;6.68;;;-10.40;86.40;;;;;;5101593;28;20054;-87
2022/01/12 04:09:00;;;;;;;10.50;5.57;;;-10.40;85.90;;;;;;5101975;28;20039;-89
2022/01/12 04:11:25;;;;;;;3.92;3.10;;;-10.50;86.40;;;;;;5081502;28;20028;-89
2022/01/12 04:13:52;;;;;;;8.48;4.40;;;-10.50;86.40;;;;;;5100552;28;20075;-88
2022/01/12 04:16:18;;;;;;;9.27;4.70;;;-10.60;86.40;;;;;;5065451;28;20025;-88
2022/01/12 04:18:44;;;;;;;8.70;4.57;;;-10.70;86.20;;;;;;5106616;28;20107;-89
2022/01/12 04:21:13;;;;;;;6.55;3.13;;;-10.80;86.50;;;;;;5086432;28;20028;-87
2022/01/12 04:23:40;;;;;;;6.30;3.30;;;-10.90;86.80;;;;;;5088013;28;20035;-86
2022/01/12 04:26:11;;;;;;;6.28;3.80;;;-10.90;87.60;;;;;;5080965;28;20009;-82
2022/01/12 04:28:43;;;;;;;7.65;4.50;;;-10.80;87.10;;;;;;5100909;28;20013;-87
2022/01/12 04:31:09;;;;;;;7.38;4.47;;;-10.80;87.00;;;;;;5086074;28;20046;-89
2022/01/12 04:33:36;;;;;;;3.78;3.17;;;-10.80;87.60;;;;;;5088519;28;20024;-87
2022/01/12 04:36:04;;;;;;;7.38;5.00;;;-10.70;88.50;;;;;;5105390;28;20028;-86
2022/01/12 04:38:34;;;;;;;8.63;4.53;;;-10.60;88.50;;;;;;5100768;28;20013;-89
2022/01/12 04:41:05;;;;;;;7.75;4.35;;;-10.60;88.10;;;;;;5101471;28;20027;-88
2022/01/12 04:43:31;;;;;;;7.30;4.07;;;-10.60;88.10;;;;;;5082324;28;20242;-88
2022/01/12 04:46:11;;;;;;;5.60;3.83;;;-10.60;88.40;;;;;;5084481;28;20032;-86
2022/01/12 04:48:52;;;;;;;9.43;4.95;;;-10.60;87.70;;;;;;5098120;28;20042;-85
2022/01/12 04:51:20;;;;;;;6.97;4.35;;;-10.50;87.40;;;;;;5098996;28;20113;-86
2022/01/12 04:53:46;;;;;;;7.55;3.95;;;-10.50;87.60;;;;;;5067999;28;20020;-84
2022/01/12 04:56:12;;;;;;;6.65;4.03;;;-10.50;87.20;;;;;;5089901;28;20103;-84
2022/01/12 04:58:38;;;;;;;5.65;4.30;;;-10.50;86.90;;;;;;5082901;28;20013;-86
2022/01/12 05:01:22;;;;;;;8.60;3.65;;;-10.40;87.50;;;;;;5095648;28;20103;-86
2022/01/12 05:09:42;;;;;;;4.68;3.03;;;-10.30;87.00;;;;;;5101986;28;20028;-85
2022/01/12 05:15:05;;;;;;;8.95;3.85;;;-10.30;85.90;;;;;;5103574;28;20027;-88
2022/01/12 05:17:31;;;;;;;8.48;4.50;;;-10.30;85.80;;;;;;5084315;28;20096;-87
2022/01/12 05:19:57;;;;;;;6.35;3.35;;;-10.30;85.70;;;;;;5084970;28;20111;-87
2022/01/12 05:22:23;;;;;;;10.43;4.93;;;-10.30;85.60;;;;;;5091415;28;20036;-86
2022/01/12 05:24:48;;;;;;;7.03;3.38;;;-10.30;85.80;;;;;;5089236;28;20050;-87
2022/01/12 05:27:19;;;;;;;8.80;4.43;;;-10.30;85.70;;;;;;5089503;28;20035;-87
2022/01/12 05:29:45;;;;;;;9.98;4.32;;;-10.30;85.80;;;;;;5116161;28;20036;-89
2022/01/12 05:32:11;;;;;;;8.43;4.47;;;-10.30;86.00;;;;;;5118968;28;20031;-88
2022/01/12 05:34:38;;;;;;;8.43;3.55;;;-10.30;85.50;;;;;;5110099;28;20027;-90
2022/01/12 05:37:05;;;;;;;7.15;3.78;;;-10.20;85.70;;;;;;5117428;28;20024;-88
2022/01/12 05:39:31;;;;;;;8.07;4.07;;;-10.30;85.70;;;;;;5102192;28;20465;-87
2022/01/12 05:41:57;;;;;;;7.07;4.13;;;-10.30;86.30;;;;;;5071897;28;20036;-88
2022/01/12 05:44:25;;;;;;;8.18;4.43;;;-10.30;86.60;;;;;;5074650;28;20074;-89
2022/01/12 05:46:54;;;;;;;8.05;4.63;;;-10.30;86.60;;;;;;5068972;28;20021;-85
2022/01/12 05:49:36;;;;;;;7.63;4.75;;;-10.30;85.80;;;;;;5086067;28;20036;-87
2022/01/12 05:52:05;;;;;;;14.00;5.32;;;-10.30;85.80;;;;;;5101220;28;20551;-88
2022/01/12 05:54:31;;;;;;;8.57;4.03;;;-10.30;85.80;;;;;;5106459;28;20361;-89
2022/01/12 05:56:57;;;;;;;7.93;4.35;;;-10.30;85.30;;;;;;5085731;28;20134;-89
2022/01/12 05:59:23;;;;;;;11.73;5.07;;;-10.30;85.40;;;;;;5078003;28;20024;-89
2022/01/12 06:01:50;;;;;;;6.25;4.00;;;-10.40;85.80;;;;;;5104760;28;20129;-90
2022/01/12 06:04:16;;;;;;;10.10;4.50;;;-10.30;85.50;;;;;;5097329;28;20397;-88
2022/01/12 06:06:45;;;;;;;10.43;6.00;;;-10.30;85.70;;;;;;5049723;28;20157;-88
2022/01/12 06:09:17;;;;;;;17.63;6.47;;;-10.30;85.70;;;;;;5100512;28;20081;-88
2022/01/12 06:11:47;;;;;;;;;;;-10.40;85.10;;;;;;5081542;28;20031;-91
2022/01/12 06:14:18;;;;;;;12.80;6.13;;;-10.50;85.20;;;;;;5085808;28;19908;-89
2022/01/12 06:16:44;;;;;;;4.05;3.25;;;-10.60;85.80;;;;;;5070921;28;20028;-91
2022/01/12 06:19:20;;;;;;;6.18;3.50;;;-10.70;86.40;;;;;;5084042;28;20112;-89
2022/01/12 06:21:46;;;;;;;6.63;3.95;;;-10.80;87.00;;;;;;5083277;28;20768;-91
2022/01/12 06:24:12;;;;;;;8.98;4.70;;;-10.90;87.10;;;;;;5083863;28;20035;-88
2022/01/12 06:26:38;;;;;;;9.35;5.80;;;-10.90;87.10;;;;;;5099784;28;20092;-87
2022/01/12 06:31:33;;;;;;;6.80;4.32;;;-10.90;87.10;;;;;;5108564;28;20476;-87
2022/01/12 06:33:59;;;;;;;10.25;6.28;;;-11.00;86.90;;;;;;5110541;28;20030;-91
2022/01/12 06:36:26;;;;;;;4.32;2.25;;;-10.90;87.20;;;;;;5071081;28;20078;-94
2022/01/12 06:38:53;;;;;;;;;;;-10.90;87.20;;;;;;5067793;28;20017;-90
2022/01/12 06:41:23;;;;;;;5.72;3.70;;;-10.90;87.10;;;;;;5094095;28;19888;-84
2022/01/12 06:43:49;;;;;;;18.83;4.72;;;-10.90;87.20;;;;;;5105555;28;20036;-88
2022/01/12 06:46:19;;;;;;;13.65;5.05;;;-10.90;88.30;;;;;;5115979;28;20041;-88
2022/01/12 06:48:49;;;;;;;15.10;4.53;;;-10.80;87.90;;;;;;5086380;28;20020;-90
2022/01/12 06:51:17;;;;;;;8.73;5.65;;;-10.70;88.00;;;;;;5085409;28;20419;-91
2022/01/12 06:53:43;;;;;;;9.48;5.93;;;-10.70;87.50;;;;;;5038888;28;20048;-92
2022/01/12 06:56:09;;;;;;;11.60;5.72;;;-10.60;86.50;;;;;;5040907;28;20120;-88
2022/01/12 06:58:35;;;;;;;7.15;3.65;;;-10.60;87.00;;;;;;5045863;28;20093;-90
2022/01/12 07:01:01;;;;;;;7.45;4.78;;;-10.60;87.30;;;;;;5053597;28;20037;-87
2022/01/12 07:03:28;;;;;;;10.23;7.20;;;-10.50;87.60;;;;;;5044764;28;20033;-88
2022/01/12 07:05:54;;;;;;;10.20;5.03;;;-10.50;87.60;;;;;;5021848;28;20046;-89
2022/01/12 07:08:20;;;;;;;9.10;5.20;;;-10.40;87.40;;;;;;5015155;28;20026;-89
2022/01/12 07:10:45;;;;;;;6.57;2.83;;;-10.40;86.90;;;;;;5020309;28;20044;-81
2022/01/12 07:13:13;;;;;;;13.48;6.18;;;-10.30;86.90;;;;;;5036704;28;20038;-83
2022/01/12 07:15:41;;;;;;;7.95;4.20;;;-10.30;86.60;;;;;;5043720;28;20044;-83
2022/01/12 07:18:32;;;;;;;11.70;7.20;;;-10.30;86.50;;;;;;5047132;22;20036;-84
2022/01/12 07:20:59;;;;;;;8.82;4.75;;;-10.20;86.00;;;;;;5030757;28;20399;-88
2022/01/12 07:23:26;;;;;;;11.90;6.03;;;-10.30;85.30;;;;;;5035828;28;20018;-85
2022/01/12 07:25:52;;;;;;;6.50;3.45;;;-10.30;84.80;;;;;;5036125;28;20048;-82
2022/01/12 07:28:19;;;;;;;8.25;4.85;;;-10.30;85.90;;;;;;5034803;28;20025;-84
2022/01/12 07:30:45;;;;;;;7.90;5.18;;;-10.40;85.60;;;;;;5034089;28;20478;-84
2022/01/12 07:33:12;;;;;;;9.27;5.72;;;-10.50;84.50;;;;;;5035786;28;20029;-84
2022/01/12 07:35:38;;;;;;;8.88;4.25;;;-10.60;84.80;;;;;;5034591;28;20018;-86
2022/01/12 07:38:04;;;;;;;6.27;4.20;;;-10.60;85.20;;;;;;5034700;28;20068;-84
2022/01/12 07:40:30;;;;;;;8.45;5.45;;;-10.60;85.30;;;;;;5033091;28;20299;-84
2022/01/12 07:42:57;;;;;;;12.67;7.17;;;-10.60;85.00;;;;;;5034257;28;20021;-84
2022/01/12 07:45:23;;;;;;;11.85;5.47;;;-10.60;85.30;;;;;;5035299;28;20287;-84
2022/01/12 07:47:49;;;;;;;6.33;3.43;;;-10.60;85.70;;;;;;5034993;28;20022;-85
2022/01/12 07:50:15;;;;;;;12.60;6.40;;;-10.50;85.30;;;;;;5036852;28;20499;-86
2022/01/12 07:52:41;;;;;;;10.05;5.32;;;-10.60;85.00;;;;;;5038298;28;20030;-83
2022/01/12 07:55:07;;;;;;;7.55;4.38;;;-10.50;85.80;;;;;;5051704;28;20172;-86
2022/01/12 07:57:33;;;;;;;11.23;5.53;;;-10.40;85.50;;;;;;5019885;28;20021;-88
2022/01/12 08:00:01;;;;;;;10.60;4.63;;;-10.40;85.20;;;;;;5018213;28;20499;-84
2022/01/12 08:02:27;;;;;;;10.95;4.13;;;-10.40;84.30;;;;;;5039009;28;20116;-84
2022/01/12 08:04:52;;;;;;;8.98;5.05;;;-10.40;84.40;;;;;;5052788;28;20048;-86
2022/01/12 08:07:18;;;;;;;12.68;5.88;;;-10.40;83.90;;;;;;5037782;28;20025;-87
2022/01/12 08:09:45;;;;;;;10.10;5.25;;;-10.40;83.90;;;;;;5038192;28;20029;-87
2022/01/12 08:12:11;;;;;;;13.33;5.57;;;-10.30;83.80;;;;;;5054740;28;20103;-85
2022/01/12 08:14:37;;;;;;;9.13;5.32;;;-10.30;83.60;;;;;;5038542;28;20088;-86
2022/01/12 08:17:03;;;;;;;9.57;5.68;;;-10.30;83.80;;;;;;5038624;28;20037;-84
2022/01/12 08:19:31;;;;;;;9.97;5.83;;;-10.20;83.50;;;;;;5042264;28;20045;-84
2022/01/12 08:21:56;;;;;;;;;;;-10.20;83.80;;;;;;5050455;28;20026;-86
2022/01/12 08:24:22;;;;;;;9.13;3.97;;;-10.10;84.50;;;;;;5048383;28;19924;-83
2022/01/12 08:26:48;;;;;;;11.90;5.50;;;-9.90;84.80;;;;;;5044722;28;20029;-86
2022/01/12 08:29:15;;;;;;;6.43;4.88;;;-9.90;84.10;;;;;;5043095;28;20509;-84
2022/01/12 08:31:43;;;;;;;10.48;6.07;;;-9.80;84.40;;;;;;5039038;28;20498;-86
2022/01/12 08:34:10;;;;;;;9.82;6.30;;;-9.70;83.20;;;;;;5039517;28;20359;-83
2022/01/12 08:36:37;;;;;;;8.13;5.65;;;-9.60;83.00;;;;;;5036825;28;20120;-86
2022/01/12 08:39:07;;;;;;;7.32;4.85;;;-9.50;80.90;;;;;;5038078;28;20394;-87
2022/01/12 08:41:33;;;;;;;11.50;6.28;;;-9.50;81.00;;;;;;5038477;28;20029;-84
2022/01/12 08:43:58;;;;;;;4.28;3.22;;;-9.50;80.50;;;;;;5037960;28;20029;-83
2022/01/12 08:46:24;;;;;;;7.15;4.43;;;-9.40;82.40;;;;;;5038228;28;20391;-83
2022/01/12 08:48:51;;;;;;;10.50;7.25;;;-9.30;81.00;;;;;;5038015;28;20025;-84
2022/01/12 08:51:17;;;;;;;6.05;3.55;;;-9.30;80.70;;;;;;5040844;28;20032;-84
2022/01/12 08:53:43;;;;;;;12.23;7.47;;;-9.40;80.70;;;;;;5049982;28;20053;-84
2022/01/12 08:56:08;;;;;;;4.93;3.45;;;-9.50;81.20;;;;;;5054409;28;20025;-87
2022/01/12 08:58:37;;;;;;;9.80;5.40;;;-9.60;80.80;;;;;;5052911;28;20030;-83
2022/01/12 09:01:03;;;;;;;7.75;4.65;;;-9.70;81.30;;;;;;5041929;28;20025;-81
2022/01/12 09:03:31;;;;;;;12.38;5.75;;;-9.80;81.30;;;;;;5040619;28;20041;-84
2022/01/12 09:05:59;;;;;;;14.88;5.70;;;-9.80;82.10;;;;;;5036517;28;20188;-87
2022/01/12 09:08:26;;;;;;;13.45;6.03;;;-9.70;82.80;;;;;;5036287;28;20107;-83
2022/01/12 09:10:52;;;;;;;8.57;4.90;;;-9.70;81.50;;;;;;5036374;28;20105;-85
2022/01/12 09:13:18;;;;;;;7.93;4.78;;;-9.70;81.40;;;;;;5039050;28;20423;-84
2022/01/12 09:15:44;;;;;;;10.80;6.00;;;-9.60;82.40;;;;;;5041265;28;20032;-86
2022/01/12 09:18:09;;;;;;;15.80;5.85;;;-9.50;82.50;;;;;;5039720;28;20021;-87
2022/01/12 09:20:35;;;;;;;17.55;6.47;;;-9.40;82.70;;;;;;5034054;28;20057;-84
2022/01/12 09:23:01;;;;;;;14.50;5.35;;;-9.20;82.00;;;;;;5021268;28;20110;-86
2022/01/12 09:25:27;;;;;;;16.90;7.65;;;-9.10;81.20;;;;;;5019942;28;20042;-85
2022/01/12 09:27:54;;;;;;;15.00;6.13;;;-9.10;80.60;;;;;;5019755;28;20018;-88
2022/01/12 09:30:19;;;;;;;10.93;6.93;;;-8.90;81.00;;;;;;5018296;28;20026;-86
2022/01/12 09:32:46;;;;;;;11.95;6.45;;;-8.70;82.50;;;;;;5033749;28;20036;-85
2022/01/12 09:35:12;;;;;;;13.48;5.93;;;-8.40;79.10;;;;;;5017976;28;20029;-86
2022/01/12 09:37:38;;;;;;;11.52;5.70;;;-8.30;77.50;;;;;;5018981;28;20080;-84
2022/01/12 09:40:05;;;;;;;11.30;5.50;;;-8.20;78.30;;;;;;5021656;28;20034;-85
2022/01/12 09:42:32;;;;;;;8.65;5.47;;;-8.20;77.50;;;;;;5023435;28;20018;-84
2022/01/12 09:44:58;;;;;;;16.42;6.80;;;-8.20;75.50;;;;;;5023035;28;20045;-88
2022/01/12 09:47:24;;;;;;;15.00;6.90;;;-8.30;75.40;;;;;;5021162;28;20029;-85
2022/01/12 09:49:50;;;;;;;25.05;6.53;;;-8.40;76.30;;;;;;5017553;28;20030;-83
2022/01/12 09:52:16;;;;;;;20.30;7.43;;;-8.50;76.20;;;;;;5032718;28;20028;-85
2022/01/12 09:54:42;;;;;;;15.13;6.72;;;-8.60;76.60;;;;;;5019887;28;20103;-85
2022/01/12 09:57:08;;;;;;;13.30;6.37;;;-8.80;76.40;;;;;;5018972;28;20105;-86
2022/01/12 09:59:35;;;;;;;16.05;7.57;;;-8.90;77.10;;;;;;5033378;28;20454;-85
2022/01/12 10:02:02;;;;;;;11.68;6.70;;;-8.90;78.00;;;;;;5035133;28;20029;-84
2022/01/12 10:04:30;;;;;;;20.35;5.97;;;-9.00;77.70;;;;;;5035208;28;20034;-86
2022/01/12 10:07:04;;;;;;;20.00;7.13;;;-9.10;78.40;;;;;;5034205;28;20032;-88
2022/01/12 10:09:36;;;;;;;13.93;8.15;;;-9.30;78.30;;;;;;5036250;28;20022;-85
2022/01/12 10:12:05;;;;;;;12.55;7.18;;;-9.40;78.00;;;;;;5036499;28;20048;-86
2022/01/12 10:14:43;;;;;;;11.25;4.97;;;-9.50;78.30;;;;;;5039946;28;20029;-85
2022/01/12 10:17:11;;;;;;;15.13;7.43;;;-9.50;79.60;;;;;;5044257;28;20104;-82
2022/01/12 10:19:38;;;;;;;11.00;7.40;;;-9.40;79.60;;;;;;5060482;28;20053;-84
2022/01/12 10:22:07;;;;;;;10.13;8.63;;;-9.20;80.90;;;;;;5063940;28;20024;-86
2022/01/12 10:24:45;;;;;;;14.38;6.80;;;-8.80;82.30;;;;;;5061530;28;20069;-84
2022/01/12 10:27:13;;;;;;;9.35;5.90;;;-8.10;83.20;;;;;;5059483;28;20017;-84
2022/01/12 10:29:40;;;;;;;14.15;7.85;;;-7.40;80.50;;;;;;5060822;28;20024;-86
2022/01/12 10:32:08;;;;;;;12.30;6.90;;;-6.80;78.10;;;;;;5058928;28;20021;-83
2022/01/12 10:34:38;;;;;;;14.90;8.50;;;-6.30;73.30;;;;;;5055234;28;20055;-85
2022/01/12 10:37:19;;;;;;;16.17;8.98;;;-6.00;73.00;;;;;;5057289;28;20029;-83
2022/01/12 10:39:48;;;;;;;14.45;8.73;;;-5.80;72.10;;;;;;5063125;28;20018;-85
2022/01/12 10:42:19;;;;;;;14.38;7.97;;;-5.80;68.40;;;;;;5068288;28;20029;-83
2022/01/12 10:44:48;;;;;;;13.40;8.90;;;-6.10;69.30;;;;;;5040056;28;20033;-85
2022/01/12 10:47:17;;;;;;;18.90;8.90;;;-6.40;69.60;;;;;;5058018;28;20105;-85
2022/01/12 10:50:03;;;;;;;10.30;6.20;;;-6.70;68.50;;;;;;5058218;28;20104;-84
2022/01/12 10:52:39;;;;;;;11.13;7.20;;;-7.10;70.00;;;;;;5056038;28;20086;-86
2022/01/12 10:55:07;;;;;;;14.95;6.13;;;-7.30;70.70;;;;;;5055468;28;20116;-84
2022/01/12 10:57:39;;;;;;;18.00;7.50;;;-7.60;70.70;;;;;;5039226;28;20052;-85
2022/01/12 11:00:23;;;;;;;8.30;6.03;;;-7.90;70.50;;;;;;5044818;28;20025;-85
2022/01/12 11:02:59;;;;;;;12.85;6.88;;;-8.10;71.90;;;;;;5047310;28;20029;-83
2022/01/12 11:05:27;;;;;;;10.57;6.63;;;-8.30;72.80;;;;;;5066269;28;20037;-85
2022/01/12 11:07:54;;;;;;;8.75;5.75;;;-8.50;72.80;;;;;;5063080;28;20103;-82
2022/01/12 11:10:20;;;;;;;6.93;5.00;;;-8.60;73.30;;;;;;5040795;28;20037;-86
2022/01/12 11:12:48;;;;;;;16.08;7.10;;;-8.90;73.60;;;;;;5056202;28;20025;-86
2022/01/12 11:15:17;;;;;;;8.88;4.47;;;-9.10;74.20;;;;;;5038368;28;20055;-85
2022/01/12 11:17:45;;;;;;;16.55;6.63;;;-9.10;75.80;;;;;;5057550;28;20044;-85
2022/01/12 11:20:22;;;;;;;11.30;5.22;;;-9.30;75.90;;;;;;5059234;28;20067;-83
2022/01/12 11:23:02;;;;;;;12.30;7.10;;;-9.40;76.40;;;;;;5064205;28;20044;-84
2022/01/12 11:25:45;;;;;;;10.10;5.95;;;-9.50;76.90;;;;;;5067915;28;20029;-86
2022/01/12 11:28:21;;;;;;;10.68;4.82;;;-9.60;77.40;;;;;;5065409;28;20382;-85
2022/01/12 11:30:50;;;;;;;14.15;6.68;;;-9.70;77.60;;;;;;5058626;28;20104;-86
2022/01/12 11:33:21;;;;;;;11.10;6.95;;;-9.70;79.00;;;;;;5041878;28;20078;-86
2022/01/12 11:35:51;;;;;;;9.50;5.72;;;-9.70;79.10;;;;;;5058812;28;20028;-84
2022/01/12 11:38:26;;;;;;;13.35;6.28;;;-9.70;79.00;;;;;;5041756;28;20100;-86
2022/01/12 11:40:55;;;;;;;12.07;7.10;;;-9.80;78.80;;;;;;5059677;28;20084;-85
2022/01/12 11:43:29;;;;;;;9.27;5.25;;;-9.80;78.60;;;;;;5040120;28;20466;-86
2022/01/12 11:46:07;;;;;;;9.75;6.25;;;-9.90;78.70;;;;;;5056240;28;20508;-86
2022/01/12 11:48:50;;;;;;;15.60;7.22;;;-9.90;79.00;;;;;;5057716;28;20494;-85
2022/01/12 11:51:18;;;;;;;11.40;6.07;;;-10.00;79.20;;;;;;5057066;28;20022;-85
2022/01/12 11:53:48;;;;;;;14.57;7.95;;;-10.00;79.30;;;;;;5057313;28;20390;-86
2022/01/12 11:56:18;;;;;;;11.25;5.93;;;-10.00;80.10;;;;;;5054112;28;20021;-86
2022/01/12 11:59:13;;;;;;;11.55;4.95;;;-10.00;80.70;;;;;;5058599;28;20104;-84
2022/01/12 12:01:51;;;;;;;12.35;5.70;;;-10.00;81.40;;;;;;5023811;28;20033;-87
2022/01/12 12:04:27;;;;;;;12.18;6.35;;;-10.10;81.20;;;;;;5040045;28;20040;-87
2022/01/12 12:07:14;;;;;;;9.02;4.75;;;-10.10;80.80;;;;;;5059772;28;20017;-86
2022/01/12 12:09:48;;;;;;;7.97;5.05;;;-10.10;80.70;;;;;;5058998;28;20128;-84
2022/01/12 12:12:23;;;;;;;12.65;6.78;;;-10.10;80.40;;;;;;5061546;28;20017;-85
2022/01/12 12:14:53;;;;;;;11.73;5.68;;;-10.20;80.80;;;;;;5055048;28;20028;-85
2022/01/12 12:17:22;;;;;;;12.23;4.93;;;-10.20;80.70;;;;;;5072824;28;20044;-84
2022/01/12 12:19:49;;;;;;;9.18;6.93;;;-10.30;80.90;;;;;;5059226;28;20045;-84
2022/01/12 12:22:28;;;;;;;20.30;7.78;;;-10.30;81.30;;;;;;5058343;28;20021;-84
2022/01/12 12:24:57;;;;;;;14.02;8.13;;;-10.30;81.20;;;;;;5058957;28;20039;-83
2022/01/12 12:27:25;;;;;;;12.60;6.30;;;-10.40;81.30;;;;;;5060324;28;20029;-86
2022/01/12 12:29:52;;;;;;;13.75;6.22;;;-10.40;81.60;;;;;;5057200;28;20108;-86
2022/01/12 12:32:20;;;;;;;10.80;6.60;;;-10.50;81.70;;;;;;5040004;28;20029;-85
2022/01/12 12:34:58;;;;;;;8.50;5.80;;;-10.50;82.10;;;;;;5040411;28;20025;-86
2022/01/12 12:37:32;;;;;;;11.75;6.00;;;-10.50;82.10;;;;;;5044510;28;20029;-87
2022/01/12 12:39:58;;;;;;;11.90;5.68;;;-10.50;82.20;;;;;;5063145;28;20029;-86
2022/01/12 12:42:24;;;;;;;7.70;4.65;;;-10.50;82.60;;;;;;5058633;28;20021;-89
2022/01/12 12:44:55;;;;;;;12.35;4.72;;;-10.50;82.70;;;;;;5056997;28;20105;-86
2022/01/12 12:47:21;;;;;;;9.45;4.57;;;-10.50;82.90;;;;;;5057609;28;20025;-87
2022/01/12 12:49:56;;;;;;;11.02;5.68;;;-10.50;82.90;;;;;;5056655;28;20025;-85
2022/01/12 12:52:29;;;;;;;10.68;5.90;;;-10.50;83.00;;;;;;5039583;28;20490;-86
2022/01/12 12:54:58;;;;;;;15.65;6.63;;;-10.50;82.80;;;;;;5042506;28;20029;-84
2022/01/12 12:57:25;;;;;;;10.77;4.82;;;-10.50;82.80;;;;;;5060975;28;20405;-85
2022/01/12 13:00:04;;;;;;;17.05;6.30;;;-10.60;83.00;;;;;;5041003;28;20029;-87
2022/01/12 13:02:37;;;;;;;10.80;5.43;;;-10.60;83.40;;;;;;5058955;28;20017;-84
2022/01/12 13:05:10;;;;;;;11.70;4.35;;;-10.60;83.40;;;;;;5056977;28;20024;-84
2022/01/12 13:07:42;;;;;;;9.93;4.97;;;-10.60;83.20;;;;;;5039903;28;20028;-86
2022/01/12 13:10:13;;;;;;;10.85;4.80;;;-10.60;83.20;;;;;;5058797;28;20474;-85
2022/01/12 13:12:40;;;;;;;8.98;5.05;;;-10.70;82.70;;;;;;5043708;28;20025;-83
2022/01/12 13:15:10;;;;;;;13.07;5.15;;;-10.70;82.80;;;;;;5048363;28;20039;-85
2022/01/12 13:17:39;;;;;;;19.63;6.70;;;-10.80;83.10;;;;;;5044189;28;20028;-86
2022/01/12 13:22:39;;;;;;;7.18;4.78;;;-10.80;83.40;;;;;;5064035;28;20020;-85
2022/01/12 13:25:06;;;;;;;;;;;-10.80;83.50;;;;;;5065760;28;20057;-84
2022/01/12 13:27:32;;;;;;;;;;;-10.80;83.60;;;;;;5065593;28;20278;-86
2022/01/12 13:29:58;;;;;;;14.13;5.78;;;-10.90;83.40;;;;;;5058178;28;19915;-86
2022/01/12 13:32:23;;;;;;;17.38;5.30;;;-10.90;83.20;;;;;;5056648;28;20422;-87
2022/01/12 13:35:03;;;;;;;8.07;4.57;;;-11.00;83.40;;;;;;5041841;28;20084;-87
2022/01/12 13:37:31;;;;;;;10.18;6.45;;;-11.00;83.90;;;;;;5043321;28;20021;-86
2022/01/12 13:40:14;;;;;;;18.70;7.38;;;-11.00;84.10;;;;;;5058448;28;20113;-86
2022/01/12 13:42:51;;;;;;;36.65;7.57;;;-11.10;84.00;;;;;;5063231;28;20041;-86
2022/01/12 13:45:29;;;;;;;13.73;6.05;;;-11.10;83.90;;;;;;5061338;28;20033;-89
2022/01/12 13:47:59;;;;;;;16.45;8.15;;;-11.10;84.20;;;;;;5057867;28;20048;-86
2022/01/12 13:50:36;;;;;;;17.08;6.75;;;-11.20;83.70;;;;;;5057029;28;20028;-85
2022/01/12 13:53:04;;;;;;;22.88;6.20;;;-11.20;83.80;;;;;;5057835;28;20033;-85
2022/01/12 13:55:31;;;;;;;18.05;8.68;;;-11.30;84.00;;;;;;5056086;28;20025;-86
2022/01/12 13:58:06;;;;;;;14.20;5.53;;;-11.30;84.50;;;;;;5056922;28;20047;-87
2022/01/12 14:00:33;;;;;;;18.00;6.38;;;-11.30;84.60;;;;;;5056506;28;20095;-86
2022/01/12 14:02:59;;;;;;;18.27;6.25;;;-11.30;84.70;;;;;;5057181;28;20082;-88
2022/01/12 14:05:39;;;;;;;15.65;6.65;;;-11.30;84.90;;;;;;5058507;28;20047;-85